createdAt,value
2017-09-08T00:00:19.496Z,13.52
2017-09-08T00:01:26.082Z,13.52
2017-09-08T00:02:33.086Z,13.50
2017-09-08T00:03:40.062Z,13.43
2017-09-08T00:04:46.167Z,13.45
2017-09-08T00:05:52.927Z,13.45
2017-09-08T00:06:59.989Z,13.36
2017-09-08T00:08:06.161Z,13.30
2017-09-08T00:09:12.210Z,13.25
2017-09-08T00:10:19.026Z,13.28
2017-09-08T00:11:25.922Z,13.29
2017-09-08T00:12:32.120Z,13.30
2017-09-08T00:13:38.562Z,13.35
2017-09-08T00:14:44.669Z,13.38
2017-09-08T00:15:51.105Z,13.27
2017-09-08T00:16:58.521Z,13.34
2017-09-08T00:18:04.327Z,13.37
2017-09-08T00:19:10.423Z,13.37
2017-09-08T00:20:16.575Z,13.30
2017-09-08T00:21:22.487Z,13.40
2017-09-08T00:22:28.614Z,13.49
2017-09-08T00:23:34.851Z,13.54
2017-09-08T00:24:40.931Z,13.63
2017-09-08T00:25:47.303Z,13.62
2017-09-08T00:26:53.474Z,13.59
2017-09-08T00:28:00.434Z,13.62
2017-09-08T00:29:06.618Z,13.61
2017-09-08T00:30:12.801Z,13.57
2017-09-08T00:31:19.512Z,13.61
2017-09-08T00:32:25.389Z,13.67
2017-09-08T00:33:32.298Z,13.65
2017-09-08T00:34:38.479Z,13.62
2017-09-08T00:35:44.742Z,13.59
2017-09-08T00:36:50.946Z,13.59
2017-09-08T00:37:57.212Z,13.61
2017-09-08T00:39:03.290Z,13.63
2017-09-08T00:40:09.942Z,13.71
2017-09-08T00:41:16.713Z,13.66
2017-09-08T00:42:23.410Z,13.60
2017-09-08T00:43:29.739Z,13.67
2017-09-08T00:44:35.548Z,13.68
2017-09-08T00:45:41.617Z,13.64
2017-09-08T00:46:47.814Z,13.59
2017-09-08T00:47:54.043Z,13.74
2017-09-08T00:48:59.952Z,13.73
2017-09-08T00:50:05.835Z,13.75
2017-09-08T00:51:11.087Z,13.83
2017-09-08T00:52:17.243Z,13.81
2017-09-08T00:53:23.053Z,13.90
2017-09-08T00:54:29.566Z,13.93
2017-09-08T00:55:35.338Z,13.88
2017-09-08T00:56:41.293Z,13.86
2017-09-08T00:57:47.120Z,13.85
2017-09-08T00:58:52.669Z,13.90
2017-09-08T00:59:58.819Z,13.93
2017-09-08T01:01:04.908Z,13.86
2017-09-08T01:02:11.196Z,13.78
2017-09-08T01:03:18.161Z,13.82
2017-09-08T01:04:24.375Z,13.86
2017-09-08T01:05:30.465Z,13.74
2017-09-08T01:06:36.284Z,13.82
2017-09-08T01:07:42.376Z,13.69
2017-09-08T01:08:49.834Z,13.66
2017-09-08T01:09:56.033Z,13.70
2017-09-08T01:11:01.892Z,13.69
2017-09-08T01:12:07.989Z,13.73
2017-09-08T01:13:13.358Z,13.70
2017-09-08T01:14:19.200Z,13.73
2017-09-08T01:15:24.475Z,13.80
2017-09-08T01:16:30.193Z,13.89
2017-09-08T01:17:36.953Z,13.87
2017-09-08T01:18:43.013Z,13.88
2017-09-08T01:19:49.255Z,13.92
2017-09-08T01:20:55.416Z,13.99
2017-09-08T01:22:01.728Z,14.00
2017-09-08T01:23:08.223Z,14.07
2017-09-08T01:24:14.373Z,14.06
2017-09-08T01:25:20.606Z,14.10
2017-09-08T01:26:26.800Z,14.12
2017-09-08T01:27:32.890Z,14.21
2017-09-08T01:28:39.289Z,14.20
2017-09-08T01:29:45.356Z,14.20
2017-09-08T01:30:51.090Z,14.17
2017-09-08T01:31:57.301Z,14.22
2017-09-08T01:33:03.554Z,14.27
2017-09-08T01:34:09.730Z,14.31
2017-09-08T01:35:15.672Z,14.33
2017-09-08T01:36:21.806Z,14.34
2017-09-08T01:37:28.892Z,14.35
2017-09-08T01:38:34.947Z,14.43
2017-09-08T01:39:41.135Z,14.47
2017-09-08T01:40:47.318Z,14.49
2017-09-08T01:41:53.604Z,14.42
2017-09-08T01:42:59.964Z,14.45
2017-09-08T01:44:06.206Z,14.50
2017-09-08T01:45:12.337Z,14.50
2017-09-08T01:46:19.103Z,14.56
2017-09-08T01:47:25.163Z,14.55
2017-09-08T01:48:31.357Z,14.57
2017-09-08T01:49:38.420Z,14.62
2017-09-08T01:50:44.715Z,14.65
2017-09-08T01:51:50.833Z,14.68
2017-09-08T01:52:56.805Z,14.74
2017-09-08T01:54:02.904Z,14.72
2017-09-08T01:55:09.121Z,14.71
2017-09-08T01:56:15.347Z,14.73
2017-09-08T01:57:22.146Z,14.71
2017-09-08T01:58:28.108Z,14.69
2017-09-08T01:59:35.126Z,14.72
2017-09-08T02:00:41.001Z,14.77
2017-09-08T02:01:46.997Z,14.77
2017-09-08T02:02:54.225Z,14.65
2017-09-08T02:04:00.372Z,14.64
2017-09-08T02:05:06.514Z,14.52
2017-09-08T02:06:14.973Z,14.52
2017-09-08T02:07:21.879Z,14.59
2017-09-08T02:08:28.374Z,14.61
2017-09-08T02:09:34.558Z,14.64
2017-09-08T02:10:40.639Z,14.65
2017-09-08T02:11:47.409Z,14.68
2017-09-08T02:12:53.534Z,14.67
2017-09-08T02:13:59.385Z,14.67
2017-09-08T02:15:05.545Z,14.73
2017-09-08T02:16:11.728Z,14.78
2017-09-08T02:17:17.913Z,14.72
2017-09-08T02:18:24.022Z,14.71
2017-09-08T02:19:30.156Z,14.65
2017-09-08T02:20:36.223Z,14.69
2017-09-08T02:21:47.677Z,14.62
2017-09-08T02:22:53.826Z,14.64
2017-09-08T02:24:00.532Z,14.60
2017-09-08T02:25:06.373Z,14.57
2017-09-08T02:26:12.198Z,14.53
2017-09-08T02:27:18.074Z,14.68
2017-09-08T02:28:24.281Z,14.78
2017-09-08T02:29:30.391Z,14.78
2017-09-08T02:30:36.511Z,14.67
2017-09-08T02:31:43.339Z,14.64
2017-09-08T02:32:49.705Z,14.68
2017-09-08T02:33:56.772Z,14.67
2017-09-08T02:35:02.793Z,14.73
2017-09-08T02:36:09.000Z,14.75
2017-09-08T02:37:15.286Z,14.78
2017-09-08T02:38:21.506Z,14.75
2017-09-08T02:39:28.452Z,14.71
2017-09-08T02:40:35.547Z,14.74
2017-09-08T02:41:42.585Z,14.76
2017-09-08T02:42:48.743Z,14.72
2017-09-08T02:43:54.957Z,14.82
2017-09-08T02:45:01.272Z,14.74
2017-09-08T02:46:07.681Z,14.71
2017-09-08T02:47:13.814Z,14.71
2017-09-08T02:48:19.987Z,14.83
2017-09-08T02:49:25.857Z,14.79
2017-09-08T02:50:32.852Z,14.87
2017-09-08T02:51:39.024Z,14.82
2017-09-08T02:52:45.279Z,14.75
2017-09-08T02:53:51.437Z,14.75
2017-09-08T02:54:57.661Z,14.73
2017-09-08T02:56:03.633Z,14.76
2017-09-08T02:57:09.619Z,14.72
2017-09-08T02:58:15.811Z,14.69
2017-09-08T02:59:21.935Z,14.68
2017-09-08T03:00:28.178Z,14.71
2017-09-08T03:01:34.136Z,14.68
2017-09-08T03:02:40.279Z,14.69
2017-09-08T03:03:46.545Z,14.68
2017-09-08T03:04:52.697Z,14.66
2017-09-08T03:05:58.881Z,14.70
2017-09-08T03:07:04.801Z,14.68
2017-09-08T03:08:10.979Z,14.63
2017-09-08T03:09:17.132Z,14.61
2017-09-08T03:10:23.315Z,14.63
2017-09-08T03:11:29.518Z,14.62
2017-09-08T03:12:35.667Z,14.65
2017-09-08T03:13:41.790Z,14.68
2017-09-08T03:14:47.955Z,14.65
2017-09-08T03:15:54.159Z,14.62
2017-09-08T03:17:00.361Z,14.62
2017-09-08T03:18:06.479Z,14.60
2017-09-08T03:19:12.602Z,14.65
2017-09-08T03:20:18.738Z,14.72
2017-09-08T03:21:24.868Z,14.81
2017-09-08T03:22:31.041Z,14.68
2017-09-08T03:23:37.032Z,14.51
2017-09-08T03:24:43.326Z,14.56
2017-09-08T03:25:49.516Z,14.57
2017-09-08T03:26:55.698Z,14.55
2017-09-08T03:28:01.845Z,14.52
2017-09-08T03:29:07.760Z,14.47
2017-09-08T03:30:14.096Z,14.46
2017-09-08T03:31:20.256Z,14.50
2017-09-08T03:32:26.454Z,14.54
2017-09-08T03:33:32.533Z,14.59
2017-09-08T03:34:38.416Z,14.63
2017-09-08T03:35:44.532Z,14.57
2017-09-08T03:36:50.745Z,14.64
2017-09-08T03:37:56.953Z,14.64
2017-09-08T03:39:02.951Z,14.48
2017-09-08T03:40:09.144Z,14.45
2017-09-08T03:41:15.373Z,14.51
2017-09-08T03:42:21.527Z,14.57
2017-09-08T03:43:27.637Z,14.57
2017-09-08T03:44:33.777Z,14.44
2017-09-08T03:45:39.901Z,14.49
2017-09-08T03:46:46.011Z,14.46
2017-09-08T03:47:52.140Z,14.46
2017-09-08T03:48:58.276Z,14.46
2017-09-08T03:50:04.484Z,14.39
2017-09-08T03:51:11.026Z,14.47
2017-09-08T03:52:17.849Z,14.49
2017-09-08T03:56:48.395Z,14.56
2017-09-08T03:58:01.891Z,14.62
2017-09-08T03:59:18.506Z,14.57
2017-09-08T04:00:33.081Z,14.58
2017-09-08T04:01:39.260Z,14.52
2017-09-08T04:02:46.083Z,14.49
2017-09-08T04:03:53.103Z,14.40
2017-09-08T04:04:59.436Z,14.39
2017-09-08T04:06:07.328Z,14.43
2017-09-08T04:07:15.831Z,14.54
2017-09-08T04:08:23.109Z,14.55
2017-09-08T04:09:31.371Z,14.57
2017-09-08T04:10:40.395Z,14.49
2017-09-08T04:11:53.544Z,14.52
2017-09-08T04:13:05.308Z,14.38
2017-09-08T04:14:19.602Z,14.41
2017-09-08T04:15:36.866Z,14.49
2017-09-08T04:17:04.605Z,14.37
2017-09-08T04:18:32.818Z,14.24
2017-09-08T04:19:47.493Z,14.15
2017-09-08T04:21:09.069Z,14.14
2017-09-08T04:22:23.495Z,14.20
2017-09-08T04:23:33.386Z,14.20
2017-09-08T04:26:41.404Z,14.18
2017-09-08T04:27:50.459Z,14.21
2017-09-08T04:29:18.849Z,14.34
2017-09-08T04:34:10.280Z,14.41
2017-09-08T04:35:20.738Z,14.38
2017-09-08T04:36:34.493Z,14.35
2017-09-08T04:37:44.578Z,14.26
2017-09-08T04:40:59.536Z,14.33
2017-09-08T04:42:24.402Z,14.42
2017-09-08T04:43:42.298Z,14.37
2017-09-08T04:45:20.275Z,14.27
2017-09-08T04:46:34.320Z,14.27
2017-09-08T04:49:38.422Z,14.42
2017-09-08T04:51:02.478Z,14.40
2017-09-08T04:52:12.728Z,14.36
2017-09-08T04:53:24.575Z,14.41
2017-09-08T04:54:57.484Z,14.45
2017-09-08T04:56:38.500Z,14.51
2017-09-08T04:59:26.311Z,14.37
2017-09-08T05:02:50.462Z,14.55
2017-09-08T05:04:02.626Z,14.58
2017-09-08T05:05:32.810Z,14.65
2017-09-08T05:06:50.134Z,14.65
2017-09-08T05:08:05.507Z,14.71
2017-09-08T05:09:21.801Z,14.76
2017-09-08T05:10:35.632Z,14.76
2017-09-08T05:11:50.421Z,14.77
2017-09-08T05:13:00.412Z,14.83
2017-09-08T05:14:11.634Z,14.79
2017-09-08T05:15:22.624Z,14.84
2017-09-08T05:17:00.458Z,14.94
2017-09-08T05:18:12.635Z,14.95
2017-09-08T05:19:22.069Z,14.98
2017-09-08T05:20:32.636Z,15.08
2017-09-08T05:21:44.613Z,15.12
2017-09-08T05:22:54.380Z,15.10
2017-09-08T05:24:31.450Z,15.13
2017-09-08T05:25:43.979Z,15.10
2017-09-08T05:27:17.434Z,15.14
2017-09-08T05:28:30.514Z,15.14
2017-09-08T05:30:05.259Z,15.10
2017-09-08T05:35:02.208Z,15.15
2017-09-08T05:36:25.644Z,15.22
2017-09-08T05:37:46.534Z,15.25
2017-09-08T05:39:02.562Z,15.26
2017-09-08T05:40:13.659Z,15.31
2017-09-08T05:41:29.408Z,15.33
2017-09-08T05:42:38.110Z,15.33
2017-09-08T05:45:23.470Z,15.42
2017-09-08T05:47:10.661Z,15.39
2017-09-08T05:48:41.371Z,15.37
2017-09-08T05:53:56.708Z,15.52
2017-09-08T05:55:19.977Z,15.54
2017-09-08T05:56:28.282Z,15.55
2017-09-08T05:59:52.029Z,15.61
2017-09-08T06:02:32.177Z,15.55
2017-09-08T06:05:40.323Z,15.48
2017-09-08T06:07:13.086Z,15.50
2017-09-08T06:08:29.599Z,15.51
2017-09-08T06:09:39.621Z,15.54
2017-09-08T06:10:48.244Z,15.54
2017-09-08T06:12:08.547Z,15.57
2017-09-08T06:13:26.590Z,15.53
2017-09-08T06:14:54.331Z,15.58
2017-09-08T06:16:06.228Z,15.64
2017-09-08T06:17:18.458Z,15.70
2017-09-08T06:18:30.337Z,15.66
2017-09-08T06:19:41.563Z,15.65
2017-09-08T06:20:53.503Z,15.68
2017-09-08T06:22:04.301Z,15.67
2017-09-08T06:23:13.326Z,15.59
2017-09-08T06:26:38.278Z,15.59
2017-09-08T06:27:49.561Z,15.64
2017-09-08T06:29:01.203Z,15.65
2017-09-08T06:30:11.286Z,15.64
2017-09-08T06:31:21.252Z,15.64
2017-09-08T06:32:32.582Z,15.70
2017-09-08T06:33:43.457Z,15.75
2017-09-08T06:34:55.488Z,15.69
2017-09-08T06:36:06.410Z,15.70
2017-09-08T06:37:18.270Z,15.74
2017-09-08T06:38:29.120Z,15.73
2017-09-08T06:39:40.334Z,15.75
2017-09-08T06:40:50.479Z,15.79
2017-09-08T06:42:02.347Z,15.76
2017-09-08T06:43:13.085Z,15.76
2017-09-08T06:44:28.985Z,15.77
2017-09-08T06:45:44.248Z,15.81
2017-09-08T06:46:54.328Z,15.79
2017-09-08T06:48:04.170Z,15.76
2017-09-08T06:49:14.203Z,15.78
2017-09-08T06:50:22.758Z,15.82
2017-09-08T06:51:31.330Z,15.91
2017-09-08T06:52:42.339Z,15.93
2017-09-08T06:53:52.223Z,15.90
2017-09-08T06:55:03.246Z,15.94
2017-09-08T06:56:13.160Z,15.86
2017-09-08T06:57:26.255Z,15.94
2017-09-08T06:58:36.189Z,15.97
2017-09-08T07:01:02.146Z,16.07
2017-09-08T07:02:12.169Z,16.04
2017-09-08T07:03:21.201Z,16.12
2017-09-08T07:04:31.125Z,16.13
2017-09-08T07:06:55.117Z,16.28
2017-09-08T07:08:06.296Z,16.31
2017-09-08T07:09:17.389Z,16.25
2017-09-08T07:10:27.133Z,16.19
2017-09-08T07:11:38.680Z,16.30
2017-09-08T07:14:04.291Z,16.32
2017-09-08T07:15:17.164Z,16.40
2017-09-08T07:16:29.278Z,16.41
2017-09-08T07:17:40.199Z,16.39
2017-09-08T07:18:51.212Z,16.33
2017-09-08T07:20:04.389Z,16.37
2017-09-08T07:21:35.242Z,16.38
2017-09-08T07:22:46.191Z,16.36
2017-09-08T07:24:00.243Z,16.42
2017-09-08T07:25:11.177Z,16.39
2017-09-08T07:26:30.120Z,16.41
2017-09-08T07:27:42.245Z,16.44
2017-09-08T07:28:58.278Z,16.38
2017-09-08T07:30:20.247Z,16.42
2017-09-08T07:31:30.274Z,16.41
2017-09-08T07:32:40.437Z,16.43
2017-09-08T07:33:51.292Z,16.46
2017-09-08T07:35:01.210Z,16.49
2017-09-08T07:36:13.195Z,16.50
2017-09-08T07:37:24.081Z,16.50
2017-09-08T07:38:35.151Z,16.52
2017-09-08T07:39:45.075Z,16.49
2017-09-08T07:40:56.144Z,16.51
2017-09-08T07:42:06.975Z,16.44
2017-09-08T07:43:16.014Z,16.41
2017-09-08T07:44:26.242Z,16.41
2017-09-08T07:45:38.182Z,16.45
2017-09-08T07:46:55.954Z,16.48
2017-09-08T07:48:12.281Z,16.44
2017-09-08T07:49:25.370Z,16.45
2017-09-08T07:50:37.160Z,16.46
2017-09-08T07:51:52.147Z,16.50
2017-09-08T07:53:02.017Z,16.51
2017-09-08T07:54:11.233Z,16.39
2017-09-08T07:55:21.284Z,16.43
2017-09-08T07:56:32.000Z,16.43
2017-09-08T07:57:41.998Z,16.48
2017-09-08T07:58:55.012Z,16.43
2017-09-08T08:00:06.033Z,16.46
2017-09-08T08:01:17.017Z,16.47
2017-09-08T08:02:29.170Z,16.45
2017-09-08T08:03:41.183Z,16.48
2017-09-08T08:04:51.731Z,16.41
2017-09-08T08:06:02.075Z,16.41
2017-09-08T08:07:12.959Z,16.37
2017-09-08T08:08:23.072Z,16.43
2017-09-08T08:09:37.271Z,16.41
2017-09-08T08:10:47.957Z,16.45
2017-09-08T08:11:59.065Z,16.40
2017-09-08T08:13:09.125Z,16.40
2017-09-08T08:14:19.925Z,16.46
2017-09-08T08:15:31.123Z,16.49
2017-09-08T08:16:43.137Z,16.54
2017-09-08T08:17:54.225Z,16.52
2017-09-08T08:19:04.909Z,16.51
2017-09-08T08:20:15.589Z,16.56
2017-09-08T08:21:26.207Z,16.57
2017-09-08T08:22:37.087Z,16.58
2017-09-08T08:23:48.111Z,16.54
2017-09-08T08:24:59.250Z,16.65
2017-09-08T08:26:10.239Z,16.68
2017-09-08T08:27:21.981Z,16.74
2017-09-08T08:28:37.190Z,16.82
2017-09-08T08:29:52.152Z,16.80
2017-09-08T08:31:02.001Z,16.83
2017-09-08T08:32:11.993Z,16.82
2017-09-08T08:33:22.953Z,16.92
2017-09-08T08:34:33.104Z,16.91
2017-09-08T08:35:43.629Z,16.93
2017-09-08T08:36:52.890Z,16.99
2017-09-08T08:38:00.891Z,16.99
2017-09-08T08:39:12.182Z,16.97
2017-09-08T08:40:21.976Z,16.97
2017-09-08T08:41:32.987Z,16.91
2017-09-08T08:42:43.498Z,16.99
2017-09-08T08:43:53.909Z,16.88
2017-09-08T08:45:05.061Z,16.97
2017-09-08T08:46:15.297Z,16.95
2017-09-08T08:47:28.043Z,16.98
2017-09-08T08:48:37.103Z,17.11
2017-09-08T08:49:54.078Z,17.23
2017-09-08T08:51:05.263Z,17.14
2017-09-08T08:52:17.229Z,17.29
2017-09-08T08:53:27.036Z,17.35
2017-09-08T08:54:38.505Z,17.44
2017-09-08T08:55:48.061Z,17.55
2017-09-08T08:56:57.930Z,17.65
2017-09-08T08:58:07.873Z,17.73
2017-09-08T08:59:19.078Z,17.79
2017-09-08T09:01:47.253Z,17.87
2017-09-08T09:02:59.039Z,17.71
2017-09-08T09:04:11.135Z,17.69
2017-09-08T09:05:21.011Z,17.63
2017-09-08T09:06:31.011Z,17.77
2017-09-08T09:07:41.962Z,17.87
2017-09-08T09:08:53.961Z,17.79
2017-09-08T09:10:03.941Z,17.73
2017-09-08T09:11:16.118Z,17.68
2017-09-08T09:12:25.957Z,17.66
2017-09-08T09:13:35.876Z,17.77
2017-09-08T09:14:45.826Z,17.67
2017-09-08T09:15:56.932Z,17.60
2017-09-08T09:17:06.865Z,17.74
2017-09-08T09:18:17.859Z,17.72
2017-09-08T09:20:36.862Z,17.66
2017-09-08T09:21:45.774Z,17.71
2017-09-08T09:22:56.215Z,17.67
2017-09-08T09:24:06.880Z,17.70
2017-09-08T09:25:17.816Z,17.78
2017-09-08T09:26:27.913Z,17.92
2017-09-08T09:27:37.935Z,17.94
2017-09-08T09:28:51.054Z,17.85
2017-09-08T09:30:00.844Z,17.96
2017-09-08T09:31:17.874Z,17.98
2017-09-08T09:32:27.840Z,17.95
2017-09-08T09:33:37.768Z,17.85
2017-09-08T09:34:47.906Z,17.74
2017-09-08T09:35:57.832Z,17.87
2017-09-08T09:37:08.725Z,17.95
2017-09-08T09:38:18.841Z,17.93
2017-09-08T09:39:30.047Z,17.93
2017-09-08T09:40:40.767Z,18.09
2017-09-08T09:41:52.937Z,18.18
2017-09-08T09:43:02.900Z,18.17
2017-09-08T09:44:14.079Z,18.24
2017-09-08T09:45:24.814Z,18.26
2017-09-08T09:46:33.828Z,18.31
2017-09-08T09:47:43.875Z,18.40
2017-09-08T09:48:54.890Z,18.48
2017-09-08T09:50:04.767Z,18.44
2017-09-08T09:51:15.798Z,18.28
2017-09-08T09:52:25.713Z,18.22
2017-09-08T09:53:35.872Z,18.31
2017-09-08T09:54:48.075Z,18.34
2017-09-08T09:55:57.769Z,18.33
2017-09-08T09:57:09.888Z,18.38
2017-09-08T09:58:19.816Z,18.36
2017-09-08T09:59:28.731Z,18.42
2017-09-08T10:00:37.875Z,18.52
2017-09-08T10:01:47.829Z,18.34
2017-09-08T10:02:58.805Z,18.43
2017-09-08T10:04:08.764Z,18.41
2017-09-08T10:05:19.866Z,18.36
2017-09-08T10:06:31.733Z,18.36
2017-09-08T10:07:41.526Z,18.46
2017-09-08T10:08:50.834Z,18.47
2017-09-08T10:10:02.748Z,18.54
2017-09-08T10:11:14.881Z,18.51
2017-09-08T10:12:31.827Z,18.56
2017-09-08T10:13:41.880Z,18.65
2017-09-08T10:14:51.849Z,18.60
2017-09-08T10:16:01.740Z,18.64
2017-09-08T10:17:13.104Z,18.67
2017-09-08T10:18:22.830Z,18.76
2017-09-08T10:19:33.737Z,18.79
2017-09-08T10:20:42.699Z,18.71
2017-09-08T10:21:52.689Z,18.80
2017-09-08T10:23:02.843Z,18.80
2017-09-08T10:24:12.953Z,18.60
2017-09-08T10:25:23.659Z,18.60
2017-09-08T10:26:33.718Z,18.55
2017-09-08T10:27:45.583Z,18.61
2017-09-08T10:28:56.665Z,18.65
2017-09-08T10:30:07.725Z,18.54
2017-09-08T10:31:24.151Z,18.58
2017-09-08T10:36:29.669Z,18.76
2017-09-08T10:38:00.989Z,18.77
2017-09-08T10:39:11.671Z,18.72
2017-09-08T10:40:45.644Z,18.78
2017-09-08T10:42:08.914Z,18.90
2017-09-08T10:43:31.959Z,18.81
2017-09-08T10:46:26.760Z,18.91
2017-09-08T10:47:35.879Z,18.98
2017-09-08T10:48:46.574Z,19.12
2017-09-08T10:49:56.725Z,19.29
2017-09-08T10:51:06.890Z,19.39
2017-09-08T10:52:15.579Z,19.50
2017-09-08T10:53:23.831Z,19.51
2017-09-08T10:55:03.644Z,19.61
2017-09-08T10:56:34.559Z,19.77
2017-09-08T10:58:08.460Z,19.77
2017-09-08T11:02:37.003Z,19.42
2017-09-08T11:04:27.142Z,19.50
2017-09-08T11:05:34.966Z,19.64
2017-09-08T11:06:44.561Z,19.73
2017-09-08T11:08:04.430Z,19.71
2017-09-08T11:10:55.616Z,19.68
2017-09-08T11:12:04.742Z,19.79
2017-09-08T11:13:14.922Z,19.64
2017-09-08T11:14:22.917Z,19.70
2017-09-08T11:15:31.146Z,19.77
2017-09-08T11:16:40.253Z,19.81
2017-09-08T11:17:49.635Z,19.84
2017-09-08T11:21:12.755Z,20.16
2017-09-08T11:22:44.625Z,20.26
2017-09-08T11:23:59.795Z,20.01
2017-09-08T11:25:22.870Z,20.05
2017-09-08T11:26:53.534Z,19.78
2017-09-08T11:28:15.940Z,19.82
2017-09-08T11:29:32.441Z,19.57
2017-09-08T11:30:46.711Z,19.46
2017-09-08T11:32:09.448Z,19.47
2017-09-08T11:33:37.858Z,19.41
2017-09-08T11:35:10.766Z,19.37
2017-09-08T11:36:32.058Z,19.30
2017-09-08T11:37:44.727Z,19.32
2017-09-08T11:38:54.573Z,19.31
2017-09-08T11:40:04.621Z,19.26
2017-09-08T11:41:14.482Z,19.25
2017-09-08T11:42:25.647Z,19.20
2017-09-08T11:43:38.756Z,19.22
2017-09-08T11:45:00.865Z,19.15
2017-09-08T11:46:11.548Z,19.15
2017-09-08T11:47:21.597Z,19.05
2017-09-08T11:48:32.551Z,19.07
2017-09-08T11:49:42.108Z,19.05
2017-09-08T11:50:55.544Z,18.97
2017-09-08T11:52:06.721Z,18.96
2017-09-08T11:53:17.839Z,18.93
2017-09-08T11:54:28.645Z,18.96
2017-09-08T11:55:38.631Z,18.99
2017-09-08T11:56:52.883Z,19.02
2017-09-08T11:58:04.462Z,19.02
2017-09-08T11:59:16.513Z,18.95
2017-09-08T12:00:27.768Z,18.85
2017-09-08T12:01:41.707Z,18.86
2017-09-08T12:02:53.654Z,18.86
2017-09-08T12:04:09.773Z,18.86
2017-09-08T12:05:30.439Z,18.82
2017-09-08T12:06:46.770Z,18.89
2017-09-08T12:07:56.493Z,18.87
2017-09-08T12:09:05.474Z,19.00
2017-09-08T12:10:14.488Z,19.04
2017-09-08T12:11:25.468Z,19.10
2017-09-08T12:12:35.367Z,19.08
2017-09-08T12:13:45.405Z,18.99
2017-09-08T12:14:56.464Z,18.91
2017-09-08T12:16:12.662Z,18.89
2017-09-08T12:17:22.748Z,18.95
2017-09-08T12:19:56.470Z,19.02
2017-09-08T12:21:07.590Z,19.04
2017-09-08T12:22:16.484Z,19.04
2017-09-08T12:23:25.486Z,19.00
2017-09-08T12:24:36.527Z,19.11
2017-09-08T12:25:46.497Z,19.05
2017-09-08T12:26:56.329Z,19.06
2017-09-08T12:28:06.458Z,18.98
2017-09-08T12:29:16.476Z,19.06
2017-09-08T12:30:26.347Z,18.99
2017-09-08T12:31:35.461Z,19.08
2017-09-08T12:32:45.538Z,19.15
2017-09-08T12:33:56.503Z,19.26
2017-09-08T12:35:07.418Z,19.34
2017-09-08T12:36:16.382Z,19.36
2017-09-08T12:37:26.366Z,19.29
2017-09-08T12:38:36.416Z,19.33
2017-09-08T12:39:53.692Z,19.36
2017-09-08T12:41:04.464Z,19.35
2017-09-08T12:42:14.063Z,19.35
2017-09-08T12:43:22.279Z,19.21
2017-09-08T12:44:33.531Z,19.25
2017-09-08T12:45:45.647Z,19.21
2017-09-08T12:46:56.364Z,19.21
2017-09-08T12:48:04.340Z,19.25
2017-09-08T12:49:13.342Z,19.19
2017-09-08T12:50:22.364Z,19.18
2017-09-08T12:51:32.607Z,19.15
2017-09-08T12:52:42.472Z,19.08
2017-09-08T12:53:52.982Z,18.93
2017-09-08T12:55:02.398Z,18.99
2017-09-08T12:56:10.342Z,18.98
2017-09-08T12:57:22.455Z,19.02
2017-09-08T12:58:33.321Z,18.93
2017-09-08T12:59:43.322Z,18.92
2017-09-08T13:00:57.530Z,18.85
2017-09-08T13:02:12.561Z,18.98
2017-09-08T13:03:21.446Z,19.01
2017-09-08T13:04:30.308Z,18.98
2017-09-08T13:05:42.252Z,18.85
2017-09-08T13:06:52.351Z,18.88
2017-09-08T13:08:01.456Z,18.90
2017-09-08T13:09:10.687Z,18.94
2017-09-08T13:10:19.565Z,19.01
2017-09-08T13:11:28.275Z,18.99
2017-09-08T13:12:39.502Z,19.05
2017-09-08T13:13:48.289Z,19.05
2017-09-08T13:14:58.497Z,19.08
2017-09-08T13:16:08.332Z,19.10
2017-09-08T13:17:20.517Z,19.13
2017-09-08T13:18:30.330Z,19.10
2017-09-08T13:19:39.374Z,19.03
2017-09-08T13:20:51.614Z,19.13
2017-09-08T13:22:04.552Z,19.15
2017-09-08T13:23:19.378Z,19.07
2017-09-08T13:24:29.314Z,19.16
2017-09-08T13:25:41.649Z,19.16
2017-09-08T13:26:52.450Z,19.15
2017-09-08T13:28:02.439Z,19.17
2017-09-08T13:29:12.554Z,19.06
2017-09-08T13:30:24.604Z,19.11
2017-09-08T13:31:34.323Z,19.08
2017-09-08T13:32:44.334Z,19.21
2017-09-08T13:33:54.360Z,19.06
2017-09-08T13:35:06.498Z,19.14
2017-09-08T13:36:16.433Z,19.25
2017-09-08T13:37:26.259Z,19.18
2017-09-08T13:38:38.470Z,19.20
2017-09-08T13:39:48.317Z,19.26
2017-09-08T13:40:58.251Z,19.25
2017-09-08T13:42:09.286Z,19.21
2017-09-08T13:43:26.449Z,19.20
2017-09-08T13:44:37.222Z,19.15
2017-09-08T13:45:46.374Z,19.12
2017-09-08T13:46:55.232Z,19.08
2017-09-08T13:48:05.364Z,19.13
2017-09-08T13:49:15.348Z,19.11
2017-09-08T13:50:25.201Z,19.09
2017-09-08T13:51:35.183Z,19.14
2017-09-08T13:52:45.449Z,19.12
2017-09-08T13:53:55.404Z,19.14
2017-09-08T13:55:06.234Z,19.19
2017-09-08T13:56:16.291Z,19.17
2017-09-08T13:57:26.720Z,19.07
2017-09-08T13:58:37.518Z,19.07
2017-09-08T13:59:47.538Z,19.07
2017-09-08T14:00:58.352Z,18.98
2017-09-08T14:02:09.252Z,19.04
2017-09-08T14:03:20.125Z,18.98
2017-09-08T14:04:36.238Z,19.02
2017-09-08T14:05:45.250Z,18.96
2017-09-08T14:06:54.010Z,18.99
2017-09-08T14:08:03.373Z,18.99
2017-09-08T14:09:13.259Z,18.94
2017-09-08T14:10:24.033Z,18.98
2017-09-08T14:11:34.238Z,18.96
2017-09-08T14:12:43.239Z,18.95
2017-09-08T14:13:55.416Z,18.96
2017-09-08T14:15:05.172Z,18.98
2017-09-08T14:16:16.239Z,18.96
2017-09-08T14:17:25.154Z,18.97
2017-09-08T14:18:35.298Z,18.95
2017-09-08T14:19:45.224Z,18.99
2017-09-08T14:20:54.346Z,18.99
2017-09-08T14:22:04.111Z,18.96
2017-09-08T14:23:15.289Z,18.95
2017-09-08T14:24:26.529Z,19.05
2017-09-08T14:25:38.276Z,19.03
2017-09-08T14:26:48.345Z,19.07
2017-09-08T14:27:59.312Z,19.07
2017-09-08T14:29:10.143Z,19.05
2017-09-08T14:30:20.226Z,19.03
2017-09-08T14:31:30.171Z,19.06
2017-09-08T14:32:39.327Z,19.08
2017-09-08T14:33:49.300Z,19.04
2017-09-08T14:34:59.168Z,19.07
2017-09-08T14:36:10.160Z,19.03
2017-09-08T14:37:20.091Z,19.02
2017-09-08T14:38:29.126Z,18.96
2017-09-08T14:39:40.213Z,18.91
2017-09-08T14:40:50.118Z,18.98
2017-09-08T14:42:00.152Z,19.01
2017-09-08T14:43:10.329Z,18.98
2017-09-08T14:44:19.255Z,18.98
2017-09-08T14:45:28.008Z,18.97
2017-09-08T14:46:38.296Z,18.98
2017-09-08T14:47:49.158Z,18.94
2017-09-08T14:48:59.450Z,18.96
2017-09-08T14:50:08.305Z,18.91
2017-09-08T14:51:19.219Z,18.79
2017-09-08T14:52:29.080Z,18.80
2017-09-08T14:53:40.175Z,18.81
2017-09-08T14:54:50.150Z,18.82
2017-09-08T14:55:59.542Z,18.83
2017-09-08T14:57:09.059Z,18.78
2017-09-08T14:58:19.150Z,18.79
2017-09-08T14:59:30.065Z,18.76
2017-09-08T15:00:41.037Z,18.77
2017-09-08T15:01:51.114Z,18.81
2017-09-08T15:03:01.226Z,18.82
2017-09-08T15:04:11.027Z,18.82
2017-09-08T15:05:21.100Z,18.87
2017-09-08T15:06:31.451Z,18.96
2017-09-08T15:07:44.451Z,18.77
2017-09-08T15:09:01.390Z,18.69
2017-09-08T15:10:11.221Z,18.72
2017-09-08T15:11:21.071Z,18.74
2017-09-08T15:12:30.100Z,18.88
2017-09-08T15:13:41.063Z,18.91
2017-09-08T15:14:51.159Z,18.85
2017-09-08T15:16:01.126Z,18.85
2017-09-08T15:17:11.107Z,18.87
2017-09-08T15:18:22.038Z,18.98
2017-09-08T15:19:32.105Z,18.85
2017-09-08T15:20:42.074Z,18.90
2017-09-08T15:21:51.425Z,18.98
2017-09-08T15:23:02.119Z,19.02
2017-09-08T15:24:13.219Z,19.03
2017-09-08T15:25:24.081Z,19.02
2017-09-08T15:26:33.439Z,19.07
2017-09-08T15:27:44.141Z,19.15
2017-09-08T15:28:53.059Z,19.03
2017-09-08T15:30:02.182Z,19.02
2017-09-08T15:31:11.373Z,19.04
2017-09-08T15:32:21.110Z,18.97
2017-09-08T15:33:31.053Z,19.00
2017-09-08T15:34:42.157Z,18.93
2017-09-08T15:35:54.175Z,18.88
2017-09-08T15:37:05.989Z,18.83
2017-09-08T15:38:18.186Z,18.69
2017-09-08T15:39:29.131Z,18.72
2017-09-08T15:40:38.130Z,18.76
2017-09-08T15:41:49.014Z,18.80
2017-09-08T15:43:02.275Z,18.78
2017-09-08T15:44:13.037Z,18.72
2017-09-08T15:45:22.892Z,18.67
2017-09-08T15:46:32.057Z,18.68
2017-09-08T15:47:43.091Z,18.68
2017-09-08T15:48:55.113Z,18.68
2017-09-08T15:50:06.087Z,18.55
2017-09-08T15:51:16.110Z,18.54
2017-09-08T15:52:27.071Z,18.55
2017-09-08T15:53:36.772Z,18.49
2017-09-08T15:54:45.958Z,18.52
2017-09-08T15:55:56.617Z,18.53
2017-09-08T15:57:05.936Z,18.54
2017-09-08T15:58:18.312Z,18.45
2017-09-08T15:59:28.131Z,18.52
2017-09-08T16:00:41.341Z,18.48
2017-09-08T16:01:57.192Z,18.51
2017-09-08T16:03:07.111Z,18.53
2017-09-08T16:04:22.245Z,18.60